WetterOnline ( https://www.wetteronline.de )

Wetter aktuell Roßlaich

Aktuelles Wetter: Hohenpeißenberg (986m)

6-stündlich | Neueste Meldungen
Ortszeit Temperatur Wetter
Fr, 18.10. 14:00 16.1° C bedeckt
Fr, 18.10. 8:00 11.3° C bedeckt
Fr, 18.10. 2:00 11.2° C bedeckt
Do, 17.10. 20:00 12.7° C bewölkt
Do, 17.10. 14:00 15.1° C leicht bewölkt
Do, 17.10. 8:00 10.9° C wolkig
Do, 17.10. 2:00 12.7° C wolkig
Mi, 16.10. 20:00 10.2° C wolkenlos
Ortszeit Temperatur Wetter
Fr, 18.10. 15:30 16.1° C bedeckt
Fr, 18.10. 15:20 16.1° C bedeckt
Fr, 18.10. 15:10 15.9° C bedeckt
Fr, 18.10. 15:00 15.8° C wolkig
Fr, 18.10. 14:50 15.8° C wolkig
Fr, 18.10. 14:40 15.7° C bewölkt
Fr, 18.10. 14:30 15.7° C bedeckt
Fr, 18.10. 14:00 16.1° C bedeckt
Fr, 18.10. 13:30 15.9° C bedeckt
Fr, 18.10. 13:00 18.4° C wolkig
Fr, 18.10. 12:30 17.1° C wolkig
Ortszeit Relative Feuchte Sichtweite
Fr, 18.10. 14:00 58% >70 km
Fr, 18.10. 8:00 67% 65 km
Fr, 18.10. 2:00 70% 60 km
Do, 17.10. 20:00 53% >70 km
Do, 17.10. 14:00 50% 50 km
Do, 17.10. 8:00 49% >70 km
Do, 17.10. 2:00 45% >70 km
Mi, 16.10. 20:00 71% >70 km
Ortszeit Relative Feuchte Sichtweite
Fr, 18.10. 15:30 59% >70 km
Fr, 18.10. 15:20 59% -
Fr, 18.10. 15:10 57% -
Fr, 18.10. 15:00 56% 55 km
Fr, 18.10. 14:50 56% -
Fr, 18.10. 14:40 57% -
Fr, 18.10. 14:30 61% 50 km
Fr, 18.10. 14:00 58% >70 km
Fr, 18.10. 13:30 57% >70 km
Fr, 18.10. 13:00 49% 55 km
Fr, 18.10. 12:30 50% 65 km
Ortszeit Niederschlagsmenge Niederschlagsart
Fr, 18.10. 14:00 0.0 l/m2 in 6 Std. -
Fr, 18.10. 8:00 0.0 l/m2 in 12 Std. -
Fr, 18.10. 2:00 0.0 l/m2 in 6 Std. -
Do, 17.10. 20:00 0.0 l/m2 in 12 Std. -
Do, 17.10. 14:00 0.1 l/m2 in 6 Std. -
Do, 17.10. 8:00 0.0 l/m2 in 12 Std. -
Do, 17.10. 2:00 0.0 l/m2 in 6 Std. -
Mi, 16.10. 20:00 0.0 l/m2 in 12 Std. -
Ortszeit Niederschlagsmenge Niederschlagsart
Fr, 18.10. 15:30 0.0 l/m2 in 1 Std. -
Fr, 18.10. 15:20 keine Meldung -
Fr, 18.10. 15:10 keine Meldung -
Fr, 18.10. 15:00 0.0 l/m2 in 1 Std. -
Fr, 18.10. 14:50 keine Meldung -
Fr, 18.10. 14:40 keine Meldung -
Fr, 18.10. 14:30 0.0 l/m2 in 1 Std. -
Fr, 18.10. 14:00 0.0 l/m2 in 1 Std. -
Fr, 18.10. 13:30 0.0 l/m2 in 1 Std. -
Fr, 18.10. 13:00 0.0 l/m2 in 1 Std. -
Fr, 18.10. 12:30 0.0 l/m2 in 1 Std. -
Ortszeit Stärke Spitze Richtung
km/h Bft. km/h Grad Sektor
Fr, 18.10. 14:00 6 1 20 90° O
Fr, 18.10. 8:00 11 2 25 230° SW
Fr, 18.10. 2:00 11 2 25 240° SW
Do, 17.10. 20:00 9 2 20 60° NO
Do, 17.10. 14:00 11 2 - 60° NO
Do, 17.10. 8:00 11 2 25 240° SW
Do, 17.10. 2:00 7 2 20 80° O
Mi, 16.10. 20:00 15 3 26 140° SO
Ortszeit Stärke Spitze Richtung
km/h Bft. km/h Grad Sektor
Fr, 18.10. 15:30 6 1 9 30° NO
Fr, 18.10. 15:20 6 1 - 30° NO
Fr, 18.10. 15:10 6 1 - 40° NO
Fr, 18.10. 15:00 7 2 11 60° NO
Fr, 18.10. 14:50 7 2 - 60° NO
Fr, 18.10. 14:40 7 2 - 50° NO
Fr, 18.10. 14:30 6 1 11 60° NO
Fr, 18.10. 14:00 6 1 13 90° O
Fr, 18.10. 13:30 7 2 14 80° O
Fr, 18.10. 13:00 6 1 15 200° S
Fr, 18.10. 12:30 7 2 14 190° S
Ortszeit Untergrenze Bedeckung Gattung
total tief tief mittel hoch
Fr, 18.10. 14:00 3600 m 8/8 8/8 - - -
Fr, 18.10. 8:00 1800 m 8/8 8/8 - - -
Fr, 18.10. 2:00 3300 m 8/8 8/8 - - -
Do, 17.10. 20:00 4800 m 8/8 4/8 - - -
Do, 17.10. 14:00 10500 m 5/8 0/8 - - -
Do, 17.10. 8:00 5100 m 5/8 5/8 - - -
Do, 17.10. 2:00 9000 m 8/8 0/8 - - -
Mi, 16.10. 20:00 - 0/8 0/8 - - -
Ortszeit Bedeckungsgrad in Achtel und Wolkenuntergrenze
Fr, 18.10. 15:30 5(3300m) 8(4800m) 8(6900m)
Fr, 18.10. 15:20 5(3300m) 8(4800m) 8(6900m)
Fr, 18.10. 15:10 5(3000m) 8(5100m) 8(6900m)
Fr, 18.10. 15:00 3(2700m) 7(3600m) 7(5100m)
Fr, 18.10. 14:50 3(2700m) 7(3600m) 7(5100m)
Fr, 18.10. 14:40 7(3000m) 7(3600m)
Fr, 18.10. 14:30 8(3300m) 8(4800m)
Fr, 18.10. 14:00 4(3600m) 8(4800m)
Fr, 18.10. 13:30 8(5400m) 8(6600m) 8(8100m)
Fr, 18.10. 13:00 3(2400m) 7(5400m) 7(6000m)
Fr, 18.10. 12:30 5(6300m) 7(7200m) 7(8400m)
Ortszeit Stationsdruck (hPa) Tendenz (hPa in 3 Std.)
Fr, 18.10. 14:00 902 - 1,4
Fr, 18.10. 8:00 903 + 0,2
Fr, 18.10. 2:00 904 - 0,3
Do, 17.10. 20:00 903 + 0,4
Do, 17.10. 14:00 904 - 1,2
Do, 17.10. 8:00 905 + 0,5
Do, 17.10. 2:00 904 - 0,2
Mi, 16.10. 20:00 904 0,0
Ortszeit Stationsdruck (hPa) Tendenz (hPa in 3 Std.)
Fr, 18.10. 15:30 902 - 1,0
Fr, 18.10. 15:20 902 keine Meldung
Fr, 18.10. 15:10 901 keine Meldung
Fr, 18.10. 15:00 902 - 1,2
Fr, 18.10. 14:50 902 keine Meldung
Fr, 18.10. 14:40 902 keine Meldung
Fr, 18.10. 14:30 902 - 1,3
Fr, 18.10. 14:00 902 - 1,4
Fr, 18.10. 13:30 902 - 1,3
Fr, 18.10. 13:00 902 - 1,1
Fr, 18.10. 12:30 903 - 0,9
Ortszeit Schneehöhe (cm)
Fr, 18.10. 14:00 0
Fr, 18.10. 8:00 0
Fr, 18.10. 2:00 0
Do, 17.10. 20:00 0
Do, 17.10. 14:00 0
Do, 17.10. 8:00 0
Do, 17.10. 2:00 0
Mi, 16.10. 20:00 0
Ortszeit Schneehöhe (cm)
Fr, 18.10. 15:30 0
Fr, 18.10. 15:20 0
Fr, 18.10. 15:10 0
Fr, 18.10. 15:00 0
Fr, 18.10. 14:50 0
Fr, 18.10. 14:40 0
Fr, 18.10. 14:30 0
Fr, 18.10. 14:00 0
Fr, 18.10. 13:30 0
Fr, 18.10. 13:00 0
Fr, 18.10. 12:30 0
Link zu dieser Seite / Seite empfehlen

Das Wetter in ...